createdAt,value
2022-09-23T00:00:38.705Z,21.61
2022-09-23T00:05:40.696Z,21.37
2022-09-23T00:10:42.656Z,21.49
2022-09-23T00:15:44.716Z,21.31
2022-09-23T00:20:46.755Z,21.28
2022-09-23T00:25:59.892Z,21.28
2022-09-23T00:31:05.990Z,21.15
2022-09-23T00:36:11.345Z,21.08
2022-09-23T00:41:16.117Z,20.97
2022-09-23T00:46:24.195Z,20.99
2022-09-23T00:51:32.197Z,20.92
2022-09-23T00:56:34.927Z,20.75
2022-09-23T01:01:37.806Z,20.78
2022-09-23T01:06:39.789Z,20.78
2022-09-23T01:12:12.150Z,20.43
2022-09-23T01:17:55.848Z,20.73
2022-09-23T01:23:28.809Z,20.71
2022-09-23T01:29:06.344Z,20.64
2022-09-23T01:34:43.724Z,20.59
2022-09-23T01:40:01.830Z,20.58
2022-09-23T01:45:35.812Z,20.56
2022-09-23T01:50:56.586Z,20.48
2022-09-23T01:56:11.485Z,20.43
2022-09-23T02:01:17.837Z,20.26
2022-09-23T02:06:24.126Z,19.96
2022-09-23T02:11:26.256Z,20.00
2022-09-23T02:16:47.021Z,20.00
2022-09-23T02:22:06.797Z,20.00
2022-09-23T02:27:20.403Z,19.88
2022-09-23T02:32:42.219Z,19.85
2022-09-23T02:38:05.820Z,19.84
2022-09-23T02:43:19.954Z,19.78
2022-09-23T02:48:26.718Z,19.55
2022-09-23T02:53:30.216Z,19.62
2022-09-23T02:58:32.089Z,19.68
2022-09-23T03:03:39.636Z,19.60
2022-09-23T03:08:53.944Z,19.57
2022-09-23T03:14:17.012Z,19.49
2022-09-23T03:19:21.643Z,19.47
2022-09-23T03:24:25.057Z,19.37
2022-09-23T03:29:28.965Z,19.25
2022-09-23T03:34:32.290Z,19.17
2022-09-23T03:39:37.980Z,19.12
2022-09-23T03:44:45.552Z,19.10
2022-09-23T03:49:49.303Z,19.08
2022-09-23T03:54:54.159Z,19.00
2022-09-23T03:59:56.204Z,18.97
2022-09-23T04:04:58.194Z,19.02
2022-09-23T04:10:00.176Z,18.94
2022-09-23T04:15:02.459Z,18.93
2022-09-23T04:27:29.093Z,18.79
2022-09-23T04:32:31.964Z,18.76
2022-09-23T04:37:33.816Z,18.68
2022-09-23T04:42:35.735Z,18.61
2022-09-23T04:47:37.806Z,18.69
2022-09-23T04:52:39.885Z,18.64
2022-09-23T04:57:42.131Z,18.61
2022-09-23T05:10:26.438Z,18.25
2022-09-23T05:15:28.358Z,17.92
2022-09-23T05:20:30.271Z,18.00
2022-09-23T05:26:05.575Z,17.90
2022-09-23T05:31:20.010Z,17.93
2022-09-23T05:36:23.268Z,17.90
2022-09-23T05:41:26.756Z,17.87
2022-09-23T05:46:30.753Z,17.71
2022-09-23T05:51:34.994Z,17.89
2022-09-23T05:56:37.410Z,17.88
2022-09-23T06:01:39.509Z,17.82
2022-09-23T06:06:42.745Z,17.72
2022-09-23T06:11:44.605Z,17.69
2022-09-23T06:16:46.514Z,17.67
2022-09-23T06:21:49.073Z,17.61
2022-09-23T06:26:51.085Z,17.60
2022-09-23T06:31:53.024Z,17.55
2022-09-23T06:36:55.761Z,17.57
2022-09-23T06:41:57.790Z,17.56
2022-09-23T06:47:02.427Z,17.52
2022-09-23T06:52:05.339Z,17.63
2022-09-23T06:57:07.745Z,17.73
2022-09-23T07:02:09.825Z,17.82
2022-09-23T07:07:14.283Z,17.62
2022-09-23T07:12:16.195Z,17.94
2022-09-23T07:17:18.146Z,18.03
2022-09-23T07:22:20.090Z,17.90
2022-09-23T07:27:26.000Z,17.97
2022-09-23T07:32:30.810Z,18.10
2022-09-23T07:37:38.288Z,18.45
2022-09-23T07:42:41.264Z,18.66
2022-09-23T07:47:43.864Z,18.89
2022-09-23T07:52:45.778Z,19.02
2022-09-23T07:57:47.722Z,19.14
2022-09-23T08:02:53.036Z,19.27
2022-09-23T08:07:55.212Z,19.34
2022-09-23T08:12:57.237Z,19.50
2022-09-23T08:18:00.059Z,19.60
2022-09-23T08:23:01.952Z,19.64
2022-09-23T08:28:03.992Z,19.96
2022-09-23T08:33:06.093Z,20.15
2022-09-23T08:38:08.648Z,20.27
2022-09-23T08:43:19.870Z,20.65
2022-09-23T08:48:49.667Z,20.98
2022-09-23T08:53:51.560Z,21.55
2022-09-23T08:59:22.285Z,22.31
2022-09-23T09:04:33.059Z,23.03
2022-09-23T09:09:40.250Z,24.01
2022-09-23T09:15:02.422Z,24.68
2022-09-23T09:20:23.386Z,25.09
2022-09-23T09:25:37.095Z,25.58
2022-09-23T09:30:39.314Z,26.15
2022-09-23T09:35:57.410Z,26.38
2022-09-23T09:41:02.503Z,25.86
2022-09-23T09:46:30.502Z,25.96
2022-09-23T09:51:32.514Z,26.41
2022-09-23T09:56:36.279Z,27.05
2022-09-23T10:01:38.539Z,27.08
2022-09-23T10:06:42.037Z,26.92
2022-09-23T10:12:02.999Z,27.77
2022-09-23T10:17:06.866Z,28.39
2022-09-23T10:22:20.903Z,28.37
2022-09-23T10:27:28.525Z,28.32
2022-09-23T10:32:31.815Z,28.55
2022-09-23T10:37:42.532Z,28.94
2022-09-23T10:43:18.202Z,29.10
2022-09-23T10:48:26.180Z,29.19
2022-09-23T10:53:56.746Z,29.83
2022-09-23T10:59:10.609Z,29.66
2022-09-23T11:05:00.693Z,29.64
2022-09-23T11:10:42.334Z,29.32
2022-09-23T11:16:06.981Z,28.74
2022-09-23T11:21:38.965Z,28.13
2022-09-23T11:27:07.930Z,27.87
2022-09-23T11:32:27.482Z,27.48
2022-09-23T11:37:40.295Z,27.12
2022-09-23T11:42:59.025Z,27.06
2022-09-23T11:48:06.115Z,26.89
2022-09-23T11:53:13.551Z,26.95
2022-09-23T11:58:24.786Z,26.99
2022-09-23T12:04:18.701Z,27.03
2022-09-23T12:09:57.362Z,26.75
2022-09-23T12:15:11.388Z,26.49
2022-09-23T12:20:42.446Z,26.19
2022-09-23T12:25:46.919Z,26.14
2022-09-23T12:30:49.867Z,26.21
2022-09-23T12:35:53.513Z,26.21
2022-09-23T12:41:38.212Z,26.23
2022-09-23T12:46:42.104Z,26.25
2022-09-23T12:52:13.900Z,26.22
2022-09-23T12:57:21.764Z,26.26
2022-09-23T13:03:12.998Z,26.16
2022-09-23T13:08:23.998Z,26.08
2022-09-23T13:13:35.455Z,26.01
2022-09-23T13:19:03.250Z,26.14
2022-09-23T13:24:14.691Z,26.26
2022-09-23T13:29:24.316Z,26.32
2022-09-23T13:34:31.993Z,26.27
2022-09-23T13:39:33.858Z,26.46
2022-09-23T13:44:36.202Z,26.48
2022-09-23T13:49:38.437Z,26.46
2022-09-23T13:54:50.247Z,26.51
2022-09-23T13:59:52.621Z,26.28
2022-09-23T14:04:58.868Z,26.41
2022-09-23T14:10:02.599Z,26.34
2022-09-23T14:22:29.824Z,26.35
2022-09-23T14:27:33.416Z,26.35
2022-09-23T14:34:02.065Z,26.33
2022-09-23T14:39:11.779Z,26.37
2022-09-23T14:44:25.252Z,26.65
2022-09-23T14:49:27.717Z,26.74
2022-09-23T14:54:51.086Z,26.72
2022-09-23T14:59:54.644Z,26.69
2022-09-23T15:05:15.822Z,26.75
2022-09-23T15:10:27.832Z,26.86
2022-09-23T15:15:29.992Z,26.73
2022-09-23T15:20:32.200Z,26.83
2022-09-23T15:25:37.513Z,26.81
2022-09-23T15:37:40.803Z,26.40
2022-09-23T15:42:46.209Z,26.71
2022-09-23T15:47:50.085Z,26.78
2022-09-23T15:52:52.061Z,26.91
2022-09-23T15:57:54.106Z,26.79
2022-09-23T16:02:56.054Z,26.65
2022-09-23T16:08:03.714Z,26.74
2022-09-23T16:13:12.481Z,26.64
2022-09-23T16:18:14.746Z,26.66
2022-09-23T16:23:34.900Z,26.61
2022-09-23T16:28:37.314Z,26.53
2022-09-23T16:33:39.926Z,26.43
2022-09-23T16:38:42.539Z,26.13
2022-09-23T16:43:44.710Z,26.27
2022-09-23T16:48:52.385Z,26.22
2022-09-23T16:53:56.223Z,25.96
2022-09-23T16:58:59.937Z,25.82
2022-09-23T17:04:02.103Z,26.02
2022-09-23T17:09:04.213Z,25.55
2022-09-23T17:14:07.089Z,25.81
2022-09-23T17:19:11.825Z,25.72
2022-09-23T17:31:51.442Z,25.54
2022-09-23T17:36:53.395Z,25.42
2022-09-23T17:41:57.452Z,25.37
2022-09-23T17:46:59.552Z,25.30
2022-09-23T17:52:05.650Z,24.89
2022-09-23T17:57:08.015Z,24.91
2022-09-23T18:02:14.924Z,24.87
2022-09-23T18:08:46.269Z,24.82
2022-09-23T18:13:50.483Z,24.59
2022-09-23T18:18:53.821Z,24.53
2022-09-23T18:24:06.512Z,24.37
2022-09-23T18:29:18.729Z,24.25
2022-09-23T18:34:20.849Z,24.27
2022-09-23T18:39:22.859Z,24.16
2022-09-23T18:44:25.113Z,24.13
2022-09-23T18:49:45.871Z,24.04
2022-09-23T18:54:49.866Z,24.00
2022-09-23T18:59:54.338Z,23.91
2022-09-23T19:04:56.884Z,23.80
2022-09-23T19:09:58.911Z,23.65
2022-09-23T19:15:00.901Z,23.62
2022-09-23T19:20:02.848Z,23.55
2022-09-23T19:25:05.278Z,23.47
2022-09-23T19:30:08.055Z,23.36
2022-09-23T19:35:10.368Z,23.38
2022-09-23T19:40:12.420Z,23.25
2022-09-23T19:45:14.348Z,23.20
2022-09-23T19:50:16.423Z,23.07
2022-09-23T19:55:20.108Z,22.93
2022-09-23T20:00:22.720Z,22.79
2022-09-23T20:05:28.606Z,22.80
2022-09-23T20:10:30.714Z,22.59
2022-09-23T20:16:13.571Z,22.68
2022-09-23T20:21:15.780Z,22.61
2022-09-23T20:26:36.250Z,22.57
2022-09-23T20:31:40.675Z,22.50
2022-09-23T20:36:42.849Z,22.53
2022-09-23T20:41:44.951Z,22.53
2022-09-23T20:46:48.917Z,22.31
2022-09-23T20:51:51.448Z,22.42
2022-09-23T20:56:53.740Z,22.28
2022-09-23T21:01:58.388Z,22.14
2022-09-23T21:07:01.235Z,22.06
2022-09-23T21:12:03.144Z,21.99
2022-09-23T21:17:05.077Z,21.96
2022-09-23T21:22:07.269Z,21.71
2022-09-23T21:27:09.241Z,21.87
2022-09-23T21:32:11.164Z,21.87
2022-09-23T21:37:13.207Z,21.84
2022-09-23T21:42:15.122Z,21.71
2022-09-23T21:47:17.013Z,21.43
2022-09-23T21:52:18.990Z,21.20
2022-09-23T21:57:20.987Z,21.00
2022-09-23T22:02:24.277Z,20.83
2022-09-23T22:07:26.822Z,20.64
2022-09-23T22:12:28.733Z,20.34
2022-09-23T22:17:33.243Z,20.48
2022-09-23T22:22:35.219Z,20.60
2022-09-23T22:27:57.183Z,20.64
2022-09-23T22:33:01.920Z,20.62
2022-09-23T22:38:04.735Z,20.49
2022-09-23T22:43:06.882Z,20.50
2022-09-23T22:48:08.876Z,20.44
2022-09-23T22:53:10.931Z,20.35
2022-09-23T22:58:31.081Z,20.33
2022-09-23T23:03:36.411Z,20.21
2022-09-23T23:08:38.966Z,20.18
2022-09-23T23:13:43.288Z,20.08
2022-09-23T23:18:47.834Z,20.11
2022-09-23T23:23:52.242Z,20.08
2022-09-23T23:28:55.011Z,20.02
2022-09-23T23:33:57.190Z,20.09
2022-09-23T23:38:59.232Z,20.08
2022-09-23T23:44:01.348Z,20.11
2022-09-23T23:49:04.053Z,20.15
2022-09-23T23:54:06.211Z,20.26
2022-09-23T23:59:08.440Z,20.33
